Time;durP1;ratioP1;P1;durP2;ratioP2;P2;SDS_P1;SDS_P2;PMS_P1;PMS_P2;Temp;Humidity;BMP_temperature;BMP_pressure;BME280_temperature;BME280_humidity;BME280_pressure;Samples;Min_cycle;Max_cycle;Signal;HPM_P1;HPM_P2
2022/06/11 00:01:40;;;;;;;14.30;8.43;;;19.00;99.90;;;;;;5023129;28;20038;-73
2022/06/11 00:04:16;;;;;;;12.25;7.45;;;19.00;99.90;;;;;;5029401;28;20029;-73
2022/06/11 00:06:46;;;;;;;7.82;7.03;;;19.00;99.90;;;;;;5028775;28;20021;-73
2022/06/11 00:09:14;;;;;;;11.50;7.45;;;19.00;99.90;;;;;;5010375;28;20550;-74
2022/06/11 00:11:41;;;;;;;11.30;8.05;;;19.00;99.90;;;;;;4999325;28;20026;-74
2022/06/11 00:14:07;;;;;;;15.15;7.20;;;19.00;99.90;;;;;;5023715;28;20104;-74
2022/06/11 00:16:33;;;;;;;12.45;7.30;;;19.00;99.90;;;;;;5028924;28;20029;-74
2022/06/11 00:19:01;;;;;;;10.98;7.82;;;18.90;99.90;;;;;;5027013;28;20060;-74
2022/06/11 00:21:30;;;;;;;9.38;7.53;;;18.90;99.90;;;;;;5032083;28;20390;-73
2022/06/11 00:23:56;;;;;;;11.93;6.93;;;18.90;99.90;;;;;;5032838;28;20104;-73
2022/06/11 00:26:22;;;;;;;10.80;7.15;;;18.90;99.90;;;;;;5034655;28;20041;-73
2022/06/11 00:28:49;;;;;;;14.18;8.48;;;18.90;99.90;;;;;;5017237;28;20045;-74
2022/06/11 00:31:17;;;;;;;12.75;7.63;;;18.90;99.90;;;;;;5033392;28;20020;-73
2022/06/11 00:33:43;;;;;;;9.57;7.30;;;18.90;99.90;;;;;;5019465;28;20045;-73
2022/06/11 00:36:10;;;;;;;8.48;7.07;;;18.90;99.90;;;;;;5019650;28;20044;-74
2022/06/11 00:38:38;;;;;;;11.45;7.30;;;18.90;99.90;;;;;;5040508;28;20076;-74
2022/06/11 00:41:05;;;;;;;14.30;7.90;;;18.90;99.90;;;;;;5040582;28;20044;-73
2022/06/11 00:43:31;;;;;;;10.90;7.22;;;18.90;99.90;;;;;;5041378;28;20489;-74
2022/06/11 00:46:18;;;;;;;8.65;6.78;;;18.90;99.90;;;;;;5040522;28;20035;-74
2022/06/11 00:48:44;;;;;;;9.23;7.78;;;18.90;99.90;;;;;;5040450;28;20071;-74
2022/06/11 00:51:17;;;;;;;11.73;7.63;;;18.80;99.90;;;;;;5039493;28;20427;-73
2022/06/11 00:53:50;;;;;;;14.65;7.45;;;18.80;99.90;;;;;;5021551;28;20535;-74
2022/06/11 00:56:21;;;;;;;10.55;6.97;;;18.80;99.90;;;;;;5021725;28;20033;-74
2022/06/11 00:58:49;;;;;;;8.25;7.13;;;18.80;99.90;;;;;;5039125;28;20022;-75
2022/06/11 01:01:17;;;;;;;11.27;6.57;;;18.80;99.90;;;;;;5039182;28;20026;-74
2022/06/11 01:03:46;;;;;;;13.00;7.68;;;18.80;99.90;;;;;;5039075;28;20032;-74
2022/06/11 01:06:51;;;;;;;12.75;7.20;;;18.80;99.90;;;;;;5039625;28;20537;-74
2022/06/11 01:09:38;;;;;;;10.40;6.68;;;18.80;99.90;;;;;;5038704;28;20529;-75
2022/06/11 01:12:13;;;;;;;11.05;7.65;;;18.80;99.90;;;;;;5038511;28;20068;-74
2022/06/11 01:14:52;;;;;;;11.23;7.15;;;18.80;99.90;;;;;;5021601;28;20024;-74
2022/06/11 01:17:32;;;;;;;11.60;6.88;;;18.80;99.90;;;;;;5039176;28;20028;-74
2022/06/11 01:20:24;;;;;;;11.73;7.55;;;18.80;99.90;;;;;;5021267;28;20402;-74
2022/06/11 01:23:02;;;;;;;14.23;7.85;;;18.80;99.90;;;;;;5035138;28;20038;-74
2022/06/11 01:25:34;;;;;;;14.23;7.68;;;18.80;99.90;;;;;;5021502;28;20022;-75
2022/06/11 01:28:41;;;;;;;11.38;6.85;;;18.80;99.90;;;;;;5039162;28;20037;-75
2022/06/11 01:31:11;;;;;;;10.68;6.60;;;18.80;99.90;;;;;;5039503;28;20025;-74
2022/06/11 01:34:03;;;;;;;11.77;7.32;;;18.80;99.90;;;;;;5021588;28;20059;-75
2022/06/11 01:36:35;;;;;;;11.20;6.75;;;18.80;99.90;;;;;;5040166;28;20034;-74
2022/06/11 01:39:22;;;;;;;9.85;7.43;;;18.70;99.90;;;;;;5044075;28;20049;-74
2022/06/11 01:41:54;;;;;;;12.73;7.95;;;18.70;99.90;;;;;;5048210;28;20037;-75
2022/06/11 01:44:25;;;;;;;10.98;7.18;;;18.70;99.90;;;;;;5041634;28;20104;-74
2022/06/11 01:46:53;;;;;;;9.23;7.18;;;18.70;99.90;;;;;;5043043;28;20025;-74
2022/06/11 01:49:22;;;;;;;10.43;7.32;;;18.80;99.90;;;;;;5043538;28;20048;-75
2022/06/11 01:52:09;;;;;;;9.93;6.93;;;18.70;99.90;;;;;;5025585;28;20031;-74
2022/06/11 01:55:08;;;;;;;11.07;6.97;;;18.70;99.90;;;;;;5047606;28;20029;-75
2022/06/11 01:57:48;;;;;;;14.25;7.05;;;18.70;99.90;;;;;;5015076;28;20040;-74
2022/06/11 02:00:24;;;;;;;13.32;7.40;;;18.60;99.90;;;;;;5000975;28;20033;-74
2022/06/11 02:03:02;;;;;;;13.10;7.35;;;18.60;99.90;;;;;;5019313;28;20105;-74
2022/06/11 02:06:01;;;;;;;11.18;7.25;;;18.60;99.90;;;;;;5019289;28;20022;-74
2022/06/11 02:08:45;;;;;;;9.55;7.63;;;18.60;99.90;;;;;;5017922;28;20057;-74
2022/06/11 02:11:20;;;;;;;11.55;6.55;;;18.50;99.90;;;;;;5017762;28;20030;-74
2022/06/11 02:14:13;;;;;;;9.40;7.05;;;18.50;99.90;;;;;;5004837;28;20036;-74
2022/06/11 02:16:58;;;;;;;11.90;7.60;;;18.40;99.90;;;;;;5023049;28;20081;-74
2022/06/11 02:19:48;;;;;;;9.05;7.30;;;18.30;99.90;;;;;;5018415;28;20025;-75
2022/06/11 02:22:25;;;;;;;13.55;7.88;;;18.30;99.90;;;;;;5016926;28;20026;-74
2022/06/11 02:25:01;;;;;;;12.43;8.07;;;18.30;99.90;;;;;;5017015;28;20025;-74
2022/06/11 02:27:29;;;;;;;9.30;7.15;;;18.20;99.90;;;;;;5015931;28;20030;-75
2022/06/11 02:29:56;;;;;;;13.73;8.30;;;18.20;99.90;;;;;;4999224;28;20057;-75
2022/06/11 02:32:25;;;;;;;15.00;7.57;;;18.20;99.90;;;;;;5017639;28;20022;-75
2022/06/11 02:35:00;;;;;;;17.23;8.05;;;18.20;99.90;;;;;;5017328;28;20097;-74
2022/06/11 02:37:42;;;;;;;14.30;8.95;;;18.20;99.90;;;;;;5017404;28;20057;-74
2022/06/11 02:40:25;;;;;;;12.60;7.95;;;18.20;99.90;;;;;;5017181;28;20077;-75
2022/06/11 02:42:51;;;;;;;16.58;8.13;;;18.20;99.90;;;;;;5026543;28;20037;-75
2022/06/11 02:45:18;;;;;;;13.13;7.80;;;18.20;99.90;;;;;;5012783;28;20025;-75
2022/06/11 02:47:46;;;;;;;11.73;7.95;;;18.20;99.90;;;;;;5031193;28;20040;-74
2022/06/11 02:50:22;;;;;;;12.57;8.23;;;18.20;99.90;;;;;;5022893;28;20022;-75
2022/06/11 02:52:48;;;;;;;15.00;8.40;;;18.20;99.90;;;;;;5017583;28;20026;-75
2022/06/11 02:55:14;;;;;;;15.85;9.15;;;18.10;99.90;;;;;;5018056;28;20383;-75
2022/06/11 02:57:40;;;;;;;12.43;7.45;;;18.10;99.90;;;;;;5018981;28;20038;-75
2022/06/11 03:00:09;;;;;;;11.52;7.63;;;18.10;99.90;;;;;;5036834;28;20021;-75
2022/06/11 03:02:35;;;;;;;9.65;8.13;;;18.00;99.90;;;;;;5019900;28;20132;-75
2022/06/11 03:05:01;;;;;;;11.20;8.38;;;18.00;99.90;;;;;;5018951;28;20060;-76
2022/06/11 03:07:27;;;;;;;11.77;8.63;;;17.90;99.90;;;;;;5037005;28;20390;-75
2022/06/11 03:09:52;;;;;;;12.18;9.23;;;17.90;99.90;;;;;;5036654;28;20021;-75
2022/06/11 03:12:18;;;;;;;13.68;9.00;;;17.80;99.90;;;;;;5037986;28;20029;-75
2022/06/11 03:14:44;;;;;;;13.55;8.57;;;17.80;99.90;;;;;;5020717;28;20057;-75
2022/06/11 03:17:13;;;;;;;13.30;7.93;;;17.70;99.90;;;;;;5038911;28;20029;-75
2022/06/11 03:19:39;;;;;;;13.77;10.13;;;17.70;99.90;;;;;;5037887;28;20030;-75
2022/06/11 03:22:07;;;;;;;11.85;8.85;;;17.70;99.90;;;;;;5021083;28;20025;-75
2022/06/11 03:24:32;;;;;;;16.80;9.43;;;17.70;99.90;;;;;;5041231;28;20029;-75
2022/06/11 03:26:58;;;;;;;14.07;9.57;;;17.70;99.90;;;;;;5040622;28;20022;-74
2022/06/11 03:29:24;;;;;;;17.60;9.38;;;17.70;99.90;;;;;;5041935;28;20037;-74
2022/06/11 03:31:50;;;;;;;13.18;8.77;;;17.60;99.90;;;;;;5037744;28;20505;-74
2022/06/11 03:34:16;;;;;;;13.90;8.90;;;17.60;99.90;;;;;;5037583;28;20026;-76
2022/06/11 03:36:43;;;;;;;15.50;9.65;;;17.60;99.90;;;;;;5036467;28;20452;-75
2022/06/11 03:39:11;;;;;;;15.60;9.77;;;17.60;99.90;;;;;;5036213;28;20025;-76
2022/06/11 03:41:37;;;;;;;11.80;9.60;;;17.60;99.90;;;;;;5036400;28;20487;-75
2022/06/11 03:44:03;;;;;;;13.65;10.43;;;17.60;99.90;;;;;;5036687;28;20036;-75
2022/06/11 03:46:29;;;;;;;11.38;9.40;;;17.60;99.90;;;;;;5018313;28;20025;-76
2022/06/11 03:48:55;;;;;;;12.85;9.98;;;17.60;99.90;;;;;;5037069;28;20124;-75
2022/06/11 03:51:22;;;;;;;13.68;10.25;;;17.60;99.90;;;;;;5037489;28;20029;-75
2022/06/11 03:53:47;;;;;;;17.83;11.05;;;17.60;99.90;;;;;;5039045;28;20022;-75
2022/06/11 03:56:15;;;;;;;11.82;9.68;;;17.60;99.90;;;;;;5036288;28;20486;-75
2022/06/11 03:58:43;;;;;;;19.70;10.95;;;17.60;99.90;;;;;;5036299;28;20056;-75
2022/06/11 04:01:15;;;;;;;16.88;9.52;;;17.70;99.90;;;;;;5018606;28;20387;-75
2022/06/11 04:03:43;;;;;;;13.95;10.43;;;17.70;99.90;;;;;;5018410;28;20064;-75
2022/06/11 04:06:09;;;;;;;18.98;10.68;;;17.70;99.90;;;;;;5036231;28;20033;-75
2022/06/11 04:08:35;;;;;;;20.92;10.13;;;17.60;99.90;;;;;;5036826;28;20022;-75
2022/06/11 04:11:02;;;;;;;15.38;10.23;;;17.60;99.90;;;;;;5036837;28;20118;-75
2022/06/11 04:13:30;;;;;;;15.25;9.95;;;17.70;99.90;;;;;;5022913;28;20026;-75
2022/06/11 04:15:58;;;;;;;14.30;9.68;;;17.60;99.90;;;;;;5023167;28;20026;-75
2022/06/11 04:18:40;;;;;;;15.93;11.43;;;17.60;99.90;;;;;;5023930;28;20079;-75
2022/06/11 04:21:09;;;;;;;14.75;10.23;;;17.70;99.90;;;;;;5041948;28;20075;-74
2022/06/11 04:23:36;;;;;;;17.35;11.55;;;17.60;99.90;;;;;;5022782;28;20029;-75
2022/06/11 04:26:04;;;;;;;13.32;9.95;;;17.70;99.90;;;;;;5040488;28;20021;-75
2022/06/11 04:28:32;;;;;;;19.33;11.05;;;17.70;99.90;;;;;;5040685;28;20029;-75
2022/06/11 04:31:00;;;;;;;16.65;10.48;;;17.80;99.90;;;;;;5040213;28;20075;-75
2022/06/11 04:33:26;;;;;;;11.88;10.05;;;17.80;99.90;;;;;;5040619;28;20030;-75
2022/06/11 04:35:51;;;;;;;16.92;10.43;;;17.80;99.90;;;;;;5041988;28;20022;-74
2022/06/11 04:38:17;;;;;;;13.02;10.40;;;17.80;99.90;;;;;;5041724;28;20107;-75
2022/06/11 04:40:43;;;;;;;14.63;10.85;;;17.90;99.90;;;;;;5040726;28;20033;-75
2022/06/11 04:43:09;;;;;;;16.20;11.90;;;17.90;99.90;;;;;;5042965;28;20027;-75
2022/06/11 04:45:35;;;;;;;15.85;11.35;;;18.00;99.90;;;;;;5049440;28;20069;-75
2022/06/11 04:48:01;;;;;;;16.17;11.00;;;18.20;99.90;;;;;;5041206;28;20057;-74
2022/06/11 04:50:27;;;;;;;11.15;9.95;;;18.30;99.90;;;;;;5030295;28;20466;-74
2022/06/11 04:52:52;;;;;;;16.10;10.63;;;18.30;99.90;;;;;;5040167;28;20034;-75
2022/06/11 04:55:18;;;;;;;18.92;10.20;;;18.30;99.90;;;;;;5021579;28;20026;-75
2022/06/11 04:57:45;;;;;;;16.98;10.95;;;18.30;99.90;;;;;;5039238;28;20036;-75
2022/06/11 05:00:14;;;;;;;16.25;11.35;;;18.40;99.90;;;;;;5020916;28;20052;-75
2022/06/11 05:02:40;;;;;;;21.27;11.05;;;18.40;99.90;;;;;;5039652;28;20379;-75
2022/06/11 05:05:06;;;;;;;15.93;11.52;;;18.40;99.90;;;;;;5024608;28;20030;-75
2022/06/11 05:07:33;;;;;;;14.88;10.88;;;18.50;99.90;;;;;;5021345;28;20030;-74
2022/06/11 05:09:59;;;;;;;14.60;11.30;;;18.60;99.90;;;;;;5039048;28;20025;-75
2022/06/11 05:12:24;;;;;;;22.15;12.05;;;18.60;99.90;;;;;;5040032;28;20095;-75
2022/06/11 05:14:50;;;;;;;15.00;11.18;;;18.70;99.90;;;;;;5038624;28;20109;-75
2022/06/11 05:17:16;;;;;;;15.93;12.10;;;18.80;99.90;;;;;;5038264;28;20022;-74
2022/06/11 05:19:42;;;;;;;19.13;11.18;;;18.80;99.90;;;;;;5020593;28;20487;-74
2022/06/11 05:22:07;;;;;;;18.23;11.25;;;18.90;99.90;;;;;;5038681;28;20024;-75
2022/06/11 05:24:33;;;;;;;19.02;11.40;;;18.90;99.90;;;;;;5037900;28;20036;-74
2022/06/11 05:27:06;;;;;;;17.05;11.43;;;18.90;99.90;;;;;;5038729;28;20473;-74
2022/06/11 05:29:47;;;;;;;18.83;12.18;;;18.90;99.90;;;;;;5022082;28;20472;-74
2022/06/11 05:32:14;;;;;;;14.30;11.10;;;18.90;99.90;;;;;;5021719;28;20025;-74
2022/06/11 05:34:40;;;;;;;17.00;11.15;;;18.80;99.90;;;;;;5023402;28;20040;-74
2022/06/11 05:37:06;;;;;;;17.08;11.48;;;18.80;99.90;;;;;;5041496;28;20058;-74
2022/06/11 05:39:32;;;;;;;18.50;11.55;;;18.80;99.90;;;;;;5041826;28;20026;-74
2022/06/11 05:41:58;;;;;;;19.13;11.70;;;18.90;99.90;;;;;;5042521;28;20089;-75
2022/06/11 05:44:24;;;;;;;19.63;11.45;;;19.00;99.90;;;;;;5041866;28;20077;-75
2022/06/11 05:46:51;;;;;;;20.88;11.75;;;19.00;99.90;;;;;;5042016;28;20036;-74
2022/06/11 05:49:24;;;;;;;14.88;11.95;;;19.10;99.90;;;;;;5042992;28;20022;-74
2022/06/11 05:51:55;;;;;;;20.20;11.77;;;19.10;99.90;;;;;;5045800;28;20037;-75
2022/06/11 05:54:25;;;;;;;20.42;11.85;;;19.30;99.90;;;;;;5037836;28;20100;-74
2022/06/11 05:56:52;;;;;;;14.00;9.73;;;19.40;99.90;;;;;;5020452;28;20124;-74
2022/06/11 05:59:29;;;;;;;17.20;10.30;;;19.40;99.90;;;;;;5038368;28;20033;-75
2022/06/11 06:01:56;;;;;;;14.30;9.32;;;19.60;99.90;;;;;;5021326;28;20023;-75
2022/06/11 06:04:22;;;;;;;17.25;9.93;;;19.60;99.90;;;;;;5030770;28;20083;-74
2022/06/11 06:06:48;;;;;;;16.05;9.32;;;19.70;99.90;;;;;;5045194;28;20033;-74
2022/06/11 06:09:13;;;;;;;13.07;8.48;;;19.80;99.90;;;;;;5024082;28;20085;-74
2022/06/11 06:11:39;;;;;;;14.70;8.80;;;19.70;99.90;;;;;;5030228;28;20033;-74
2022/06/11 06:14:04;;;;;;;15.88;10.02;;;19.70;99.90;;;;;;5032084;28;20636;-74
2022/06/11 06:16:31;;;;;;;19.48;9.95;;;19.70;99.90;;;;;;5018955;28;20052;-74
2022/06/11 06:18:59;;;;;;;12.70;9.90;;;19.70;99.90;;;;;;5014625;28;20367;-74
2022/06/11 06:21:32;;;;;;;16.55;11.02;;;19.60;99.90;;;;;;5039186;28;20025;-74
2022/06/11 06:23:58;;;;;;;16.55;10.75;;;19.60;99.90;;;;;;5038834;28;20045;-75
2022/06/11 06:26:24;;;;;;;16.05;10.15;;;19.60;99.90;;;;;;5018900;28;20021;-75
2022/06/11 06:28:50;;;;;;;17.95;10.57;;;19.60;99.90;;;;;;5036894;28;20038;-75
2022/06/11 06:31:17;;;;;;;15.35;10.63;;;19.60;99.90;;;;;;5037075;28;20029;-75
2022/06/11 06:33:43;;;;;;;16.38;9.73;;;19.60;99.90;;;;;;5037058;28;20026;-75
2022/06/11 06:36:10;;;;;;;15.07;8.07;;;19.60;99.90;;;;;;5019258;28;20099;-75
2022/06/11 06:38:38;;;;;;;17.25;8.50;;;19.80;99.90;;;;;;5037320;28;20032;-75
2022/06/11 06:41:04;;;;;;;15.93;8.48;;;19.90;99.90;;;;;;5036757;28;20033;-75
2022/06/11 06:43:31;;;;;;;10.98;6.80;;;20.00;99.90;;;;;;5019384;28;20029;-75
2022/06/11 06:45:57;;;;;;;12.60;6.38;;;20.00;99.90;;;;;;5037723;28;20021;-74
2022/06/11 06:48:22;;;;;;;8.93;6.50;;;19.90;99.90;;;;;;5018943;28;20394;-75
2022/06/11 06:50:48;;;;;;;12.05;6.53;;;19.90;99.90;;;;;;5036277;28;20021;-75
2022/06/11 06:53:14;;;;;;;10.30;5.32;;;19.80;99.90;;;;;;5018369;28;20490;-75
2022/06/11 06:55:40;;;;;;;11.10;5.40;;;19.80;99.90;;;;;;5037521;28;20372;-75
2022/06/11 06:58:05;;;;;;;11.82;5.57;;;19.80;99.90;;;;;;5036182;28;20041;-75
2022/06/11 07:00:31;;;;;;;11.35;5.05;;;19.80;99.90;;;;;;5036522;28;20025;-75
2022/06/11 07:02:57;;;;;;;11.07;4.20;;;19.90;99.90;;;;;;5041601;28;20031;-74
2022/06/11 07:05:25;;;;;;;9.50;3.88;;;20.00;99.90;;;;;;5022964;28;20113;-74
2022/06/11 07:07:52;;;;;;;7.82;3.83;;;20.10;99.90;;;;;;5036468;28;20021;-74
2022/06/11 07:10:21;;;;;;;9.07;3.67;;;20.30;99.90;;;;;;5036612;28;20055;-74
2022/06/11 07:12:47;;;;;;;8.88;4.20;;;20.50;99.90;;;;;;5036341;28;20030;-74
2022/06/11 07:15:13;;;;;;;8.00;3.45;;;20.80;99.90;;;;;;5018149;28;20037;-74
2022/06/11 07:18:03;;;;;;;8.57;3.20;;;20.90;99.90;;;;;;5036374;28;20025;-74
2022/06/11 07:20:31;;;;;;;5.30;3.28;;;21.10;99.90;;;;;;5035625;28;20156;-74
2022/06/11 07:23:06;;;;;;;4.15;3.00;;;21.20;99.90;;;;;;5037087;28;20033;-76
2022/06/11 07:25:32;;;;;;;10.77;3.70;;;21.30;99.90;;;;;;5020864;28;20021;-74
2022/06/11 07:28:06;;;;;;;5.85;3.10;;;21.40;99.90;;;;;;5038421;28;20089;-74
2022/06/11 07:30:37;;;;;;;5.30;2.92;;;21.30;99.90;;;;;;5036891;28;20116;-75
2022/06/11 07:33:11;;;;;;;;;;;21.20;99.90;;;;;;5018755;28;20111;-76
2022/06/11 07:35:38;;;;;;;8.77;3.20;;;21.20;99.90;;;;;;5018668;28;20444;-75
2022/06/11 07:38:11;;;;;;;6.43;2.92;;;21.20;99.90;;;;;;5035688;28;20033;-74
2022/06/11 07:40:37;;;;;;;9.98;4.00;;;21.10;99.90;;;;;;5036097;28;20033;-76
2022/06/11 07:43:06;;;;;;;7.32;3.40;;;21.10;99.90;;;;;;5036509;28;20340;-75
2022/06/11 07:45:34;;;;;;;7.18;2.75;;;21.20;99.90;;;;;;5019834;28;20021;-73
2022/06/11 07:48:00;;;;;;;7.10;3.30;;;21.20;99.90;;;;;;5043396;28;20116;-74
2022/06/11 07:50:28;;;;;;;4.75;2.72;;;21.30;99.90;;;;;;5049748;28;20021;-74
2022/06/11 07:52:55;;;;;;;8.07;3.38;;;21.30;99.90;;;;;;5043565;28;20522;-74
2022/06/11 07:55:21;;;;;;;8.05;3.03;;;21.40;99.90;;;;;;5043034;28;20032;-74
2022/06/11 07:57:47;;;;;;;9.15;3.55;;;21.50;99.90;;;;;;5042408;28;20025;-75
2022/06/11 08:00:19;;;;;;;8.57;3.83;;;21.50;99.90;;;;;;5043639;28;20025;-73
2022/06/11 08:02:45;;;;;;;11.23;3.03;;;21.60;99.90;;;;;;5043051;28;20479;-74
2022/06/11 08:05:11;;;;;;;10.52;3.28;;;21.60;99.90;;;;;;5042647;28;20086;-74
2022/06/11 08:07:37;;;;;;;7.68;2.83;;;21.70;99.90;;;;;;5024387;28;20021;-73
2022/06/11 08:10:03;;;;;;;7.88;3.38;;;21.70;99.90;;;;;;5042904;28;20033;-73
2022/06/11 08:12:29;;;;;;;7.60;2.80;;;21.70;99.90;;;;;;5042520;28;20107;-74
2022/06/11 08:14:56;;;;;;;7.68;2.70;;;21.70;99.90;;;;;;5043010;28;20037;-74
2022/06/11 08:17:27;;;;;;;11.07;3.10;;;21.80;99.90;;;;;;5033882;28;20390;-73
2022/06/11 08:19:53;;;;;;;4.65;2.50;;;21.80;99.90;;;;;;5032085;28;20114;-74
2022/06/11 08:22:19;;;;;;;8.23;2.55;;;21.90;99.90;;;;;;5020565;28;20458;-74
2022/06/11 08:24:46;;;;;;;5.65;2.47;;;21.80;99.90;;;;;;5035821;28;20063;-74
2022/06/11 08:27:11;;;;;;;5.53;2.95;;;21.80;99.90;;;;;;5037527;28;20026;-75
2022/06/11 08:29:37;;;;;;;4.20;2.55;;;21.80;99.90;;;;;;5033620;28;20036;-73
2022/06/11 08:32:05;;;;;;;10.10;2.70;;;21.80;99.90;;;;;;5044035;28;20623;-74
2022/06/11 08:34:38;;;;;;;8.68;2.38;;;21.70;99.90;;;;;;5023987;28;20022;-74
2022/06/11 08:37:04;;;;;;;8.85;3.00;;;21.60;99.90;;;;;;5044501;28;20021;-74
2022/06/11 08:39:30;;;;;;;11.48;3.33;;;21.50;99.90;;;;;;5018549;28;20028;-74
2022/06/11 08:41:58;;;;;;;5.13;2.78;;;21.50;99.90;;;;;;5041652;28;20104;-74
2022/06/11 08:44:24;;;;;;;10.75;3.05;;;21.40;99.90;;;;;;5037490;28;20032;-74
2022/06/11 08:46:50;;;;;;;7.18;2.78;;;21.50;99.90;;;;;;5024180;28;20045;-73
2022/06/11 08:49:35;;;;;;;7.45;2.95;;;21.50;99.90;;;;;;5038222;28;20018;-73
2022/06/11 08:52:12;;;;;;;10.23;2.88;;;21.50;99.90;;;;;;5041083;28;20014;-74
2022/06/11 08:54:44;;;;;;;8.23;3.00;;;21.60;99.90;;;;;;5041201;28;20017;-74
2022/06/11 08:57:09;;;;;;;;;;;21.70;99.90;;;;;;5030981;28;20368;-74
2022/06/11 08:59:49;;;;;;;12.32;3.63;;;21.80;99.90;;;;;;5037462;28;19909;-73
2022/06/11 09:02:40;;;;;;;13.33;3.60;;;22.00;99.90;;;;;;5038578;28;20126;-73
2022/06/11 09:05:27;;;;;;;13.35;3.13;;;22.10;99.90;;;;;;5039856;28;20107;-74
2022/06/11 09:08:16;;;;;;;13.27;3.35;;;22.20;99.90;;;;;;5020382;28;20037;-73
2022/06/11 09:10:55;;;;;;;8.52;3.28;;;22.30;99.90;;;;;;5039870;28;20056;-73
2022/06/11 09:14:09;;;;;;;8.88;3.33;;;22.40;99.90;;;;;;5040869;28;20022;-73
2022/06/11 09:16:46;;;;;;;10.32;3.72;;;22.50;99.90;;;;;;4976348;28;20027;-73
2022/06/11 09:19:12;;;;;;;12.25;3.90;;;22.50;99.90;;;;;;5038425;28;20027;-73
2022/06/11 09:22:21;;;;;;;13.40;3.60;;;22.40;99.90;;;;;;5038133;28;20014;-73
2022/06/11 09:25:17;;;;;;;15.23;4.95;;;22.20;99.90;;;;;;5037394;28;20025;-73
2022/06/11 09:28:05;;;;;;;9.95;3.45;;;22.10;99.90;;;;;;4998111;28;20038;-73
2022/06/11 09:30:49;;;;;;;14.73;3.63;;;22.10;99.90;;;;;;5036880;28;20030;-75
2022/06/11 09:33:43;;;;;;;13.82;3.45;;;22.20;99.90;;;;;;5022369;28;20030;-74
2022/06/11 09:36:19;;;;;;;13.88;4.28;;;22.20;99.90;;;;;;5036093;28;20429;-74
2022/06/11 09:39:28;;;;;;;14.52;3.80;;;22.30;99.90;;;;;;5043113;28;20025;-73
2022/06/11 09:42:17;;;;;;;10.27;3.47;;;22.50;99.90;;;;;;5056920;22;20045;-50
2022/06/11 09:44:51;;;;;;;12.15;4.03;;;22.30;99.90;;;;;;5052362;28;20020;-51
2022/06/11 09:47:41;;;;;;;16.00;5.15;;;22.50;99.90;;;;;;5053326;28;20021;-51
2022/06/11 09:50:21;;;;;;;10.38;3.17;;;22.60;99.90;;;;;;5053107;28;20024;-50
2022/06/11 09:52:52;;;;;;;13.43;3.55;;;22.90;99.90;;;;;;5050194;28;20048;-52
2022/06/11 09:55:22;;;;;;;13.43;4.60;;;22.80;99.90;;;;;;5051504;28;20028;-51
2022/06/11 09:58:12;;;;;;;12.05;3.83;;;22.70;99.90;;;;;;5048788;28;20623;-53
2022/06/11 10:00:46;;;;;;;14.38;3.63;;;22.70;99.90;;;;;;5031457;28;20033;-52
2022/06/11 10:03:43;;;;;;;17.48;4.05;;;22.60;99.90;;;;;;5033763;28;20040;-52
2022/06/11 10:06:14;;;;;;;13.38;3.60;;;22.50;99.90;;;;;;5049545;28;20067;-52
2022/06/11 10:08:39;;;;;;;11.02;3.60;;;22.60;99.90;;;;;;5053332;28;20055;-54
2022/06/11 10:11:11;;;;;;;11.18;4.65;;;22.90;99.90;;;;;;5051715;28;20084;-53
2022/06/11 10:13:45;;;;;;;9.88;2.60;;;23.00;99.90;;;;;;5031791;28;20033;-53
2022/06/11 10:16:39;;;;;;;13.98;3.22;;;23.00;99.90;;;;;;5052550;28;20100;-52
2022/06/11 10:19:30;;;;;;;9.52;3.42;;;23.10;99.90;;;;;;5051374;28;20025;-53
2022/06/11 10:22:05;;;;;;;11.15;2.85;;;23.00;99.90;;;;;;5043713;28;20014;-56
2022/06/11 10:24:34;;;;;;;12.88;3.83;;;22.70;99.90;;;;;;5054084;28;20017;-54
2022/06/11 10:27:11;;;;;;;13.55;3.22;;;22.70;99.90;;;;;;5051548;28;20386;-53
2022/06/11 10:29:54;;;;;;;14.60;3.72;;;22.60;99.90;;;;;;5052074;28;20064;-55
2022/06/11 10:32:32;;;;;;;14.45;3.28;;;22.70;99.90;;;;;;5051495;28;20036;-52
2022/06/11 10:35:24;;;;;;;17.90;4.50;;;22.80;99.90;;;;;;5053064;28;20033;-55
2022/06/11 10:38:12;;;;;;;14.23;3.58;;;22.90;99.90;;;;;;5039927;28;20043;-53
2022/06/11 10:40:42;;;;;;;15.57;3.80;;;23.20;99.90;;;;;;5033561;28;20026;-52
2022/06/11 10:43:17;;;;;;;11.30;2.78;;;23.50;99.90;;;;;;5033348;28;20036;-50
2022/06/11 10:45:45;;;;;;;11.15;3.03;;;23.60;99.90;;;;;;5041698;28;20163;-52
2022/06/11 10:48:17;;;;;;;16.90;3.50;;;23.70;99.90;;;;;;5047929;28;20112;-52
2022/06/11 10:50:43;;;;;;;10.18;2.83;;;23.70;99.90;;;;;;5044318;28;20382;-53
2022/06/11 10:53:17;;;;;;;15.57;3.47;;;23.80;99.90;;;;;;5053475;28;20025;-56
2022/06/11 10:55:57;;;;;;;7.68;2.20;;;23.60;99.90;;;;;;5053266;28;20108;-54
2022/06/11 10:58:38;;;;;;;12.25;2.95;;;23.70;99.90;;;;;;5053295;28;20032;-55
2022/06/11 11:01:08;;;;;;;10.80;2.97;;;24.00;99.90;;;;;;5047353;28;20025;-54
2022/06/11 11:03:48;;;;;;;11.88;2.97;;;24.00;99.90;;;;;;5052747;28;20454;-54
2022/06/11 11:06:35;;;;;;;14.40;3.30;;;24.00;99.90;;;;;;5053227;28;20505;-55
2022/06/11 11:09:13;;;;;;;10.98;3.25;;;24.00;99.90;;;;;;5053617;28;20371;-53
2022/06/11 11:11:48;;;;;;;11.60;3.03;;;23.90;99.90;;;;;;5051531;28;20027;-57
2022/06/11 11:14:32;;;;;;;7.78;2.47;;;23.90;99.90;;;;;;5033419;28;20075;-56
2022/06/11 11:17:03;;;;;;;11.98;2.85;;;24.00;99.90;;;;;;5034347;28;20029;-55
2022/06/11 11:19:33;;;;;;;11.93;3.25;;;24.10;99.90;;;;;;5034009;28;20026;-55
2022/06/11 11:22:16;;;;;;;10.02;2.63;;;24.00;99.90;;;;;;5033110;28;20529;-54
2022/06/11 11:24:48;;;;;;;13.68;3.30;;;23.90;99.90;;;;;;5038168;28;20024;-55
2022/06/11 11:27:16;;;;;;;9.73;3.67;;;24.00;99.90;;;;;;5053298;28;20021;-55
2022/06/11 11:30:02;;;;;;;8.20;3.30;;;24.20;99.90;;;;;;5052833;28;20029;-55
2022/06/11 11:32:39;;;;;;;10.25;2.58;;;24.30;99.90;;;;;;5052585;28;20106;-51
2022/06/11 11:35:21;;;;;;;12.07;3.97;;;24.40;99.90;;;;;;5052942;28;20031;-54
2022/06/11 11:38:10;;;;;;;12.65;2.63;;;24.50;99.90;;;;;;5033499;28;20025;-51
2022/06/11 11:40:50;;;;;;;16.27;3.22;;;24.60;99.90;;;;;;5020482;28;20491;-51
2022/06/11 11:43:17;;;;;;;11.60;2.90;;;24.70;99.90;;;;;;5049630;28;20075;-55
2022/06/11 11:45:54;;;;;;;8.10;2.25;;;24.70;99.90;;;;;;5040430;28;20029;-52
2022/06/11 11:48:30;;;;;;;9.38;2.70;;;24.80;99.90;;;;;;5051133;28;20482;-49
2022/06/11 11:51:08;;;;;;;9.90;3.10;;;25.00;99.90;;;;;;5053113;28;20469;-51
2022/06/11 11:53:44;;;;;;;13.27;3.85;;;24.80;99.90;;;;;;5052597;28;20029;-50
2022/06/11 11:56:27;;;;;;;12.73;3.15;;;24.80;99.90;;;;;;5052600;28;20029;-50
2022/06/11 11:59:05;;;;;;;13.20;3.80;;;24.50;99.90;;;;;;5050741;28;20502;-54
2022/06/11 12:01:30;;;;;;;14.30;3.03;;;24.30;99.90;;;;;;5007687;28;20025;-55
2022/06/11 12:04:11;;;;;;;12.93;2.90;;;24.30;99.90;;;;;;5032633;28;20029;-50
2022/06/11 12:06:44;;;;;;;10.20;3.30;;;24.40;99.90;;;;;;5032462;28;20033;-52
2022/06/11 12:09:23;;;;;;;12.75;3.10;;;24.20;99.90;;;;;;5031794;28;20034;-51
2022/06/11 12:12:08;;;;;;;8.57;3.22;;;24.00;99.90;;;;;;5036803;28;20029;-51
2022/06/11 12:14:40;;;;;;;11.35;3.25;;;24.00;99.90;;;;;;5032808;28;20036;-51
2022/06/11 12:17:42;;;;;;;12.57;2.97;;;24.00;99.90;;;;;;5043855;28;20106;-52
2022/06/11 12:20:22;;;;;;;17.10;3.65;;;23.90;99.90;;;;;;5040396;28;20038;-50
2022/06/11 12:22:55;;;;;;;10.60;3.15;;;23.70;99.90;;;;;;5052430;28;20031;-52
2022/06/11 12:25:37;;;;;;;12.38;3.08;;;23.70;99.90;;;;;;5052823;28;20057;-51
2022/06/11 12:28:04;;;;;;;12.23;3.13;;;24.00;99.90;;;;;;5052854;28;20044;-53
2022/06/11 12:30:30;;;;;;;15.00;3.25;;;24.20;99.90;;;;;;5052774;28;20021;-56
2022/06/11 12:32:58;;;;;;;11.57;3.05;;;24.20;99.90;;;;;;5054237;28;20091;-53
2022/06/11 12:35:39;;;;;;;12.05;3.20;;;24.20;99.90;;;;;;5038057;28;20039;-54
2022/06/11 12:38:13;;;;;;;14.13;3.45;;;24.10;99.90;;;;;;5051502;28;20078;-51
2022/06/11 12:41:05;;;;;;;13.98;3.58;;;24.20;99.90;;;;;;5044807;28;20561;-56
2022/06/11 12:43:55;;;;;;;10.73;2.85;;;24.10;99.90;;;;;;5036054;28;20521;-50
2022/06/11 12:46:46;;;;;;;13.25;3.78;;;24.10;99.90;;;;;;5036664;28;20132;-53
2022/06/11 12:49:36;;;;;;;10.93;3.13;;;24.10;99.90;;;;;;5043708;28;20029;-54
2022/06/11 12:52:08;;;;;;;12.50;2.95;;;24.00;99.90;;;;;;5042958;28;20020;-52
2022/06/11 12:54:45;;;;;;;10.88;2.60;;;24.00;99.90;;;;;;5044872;28;20379;-53
2022/06/11 12:57:22;;;;;;;9.10;2.90;;;24.20;99.90;;;;;;5038233;28;20047;-53
2022/06/11 12:59:54;;;;;;;11.10;3.05;;;24.20;99.90;;;;;;5054622;28;20103;-54
2022/06/11 13:02:56;;;;;;;12.82;2.97;;;24.30;99.90;;;;;;5055388;28;20021;-51
2022/06/11 13:05:35;;;;;;;9.50;2.80;;;24.60;99.90;;;;;;5055732;28;20025;-52
2022/06/11 13:08:45;;;;;;;7.10;2.78;;;24.80;99.90;;;;;;5037462;28;20029;-51